Time;durP1;ratioP1;P1;durP2;ratioP2;P2;SDS_P1;SDS_P2;PMS_P1;PMS_P2;Temp;Humidity;BMP_temperature;BMP_pressure;BME280_temperature;BME280_humidity;BME280_pressure;Samples;Min_cycle;Max_cycle;Signal;HPM_P1;HPM_P2
2022/04/10 00:02:46;;;;;;;;;;;;;;;;;;;;;
2022/04/10 00:05:47;;;;;;;0.95;0.73;;;;;;;1.51;35.26;92355.84;6255006;23;20087;-90
2022/04/10 00:08:59;;;;;;;;;;;;;;;;;;;;;
2022/04/10 00:11:50;;;;;;;;;;;;;;;;;;;;;
2022/04/10 00:14:52;;;;;;;1.73;0.98;;;;;;;1.91;35.26;92416.88;6254550;23;20094;-90
2022/04/10 00:18:12;;;;;;;1.08;0.90;;;;;;;1.53;35.83;92358.97;6159943;23;20021;-90
2022/04/10 00:21:04;;;;;;;;;;;;;;;;;;;;;
2022/04/10 00:27:16;;;;;;;;;;;;;;;;;;;;;
2022/04/10 00:33:33;;;;;;;;;;;;;;;;;;;;;
2022/04/10 00:36:40;;;;;;;1.27;0.90;;;;;;;1.80;36.12;92390.91;6196331;23;19998;-91
2022/04/10 00:43:25;;;;;;;;;;;;;;;;;;;;;
2022/04/10 00:46:19;;;;;;;0.88;0.77;;;;;;;1.72;35.66;92380.19;6215986;23;20056;-90
2022/04/10 00:49:08;;;;;;;;;;;;;;;;;;;;;
2022/04/10 00:52:11;;;;;;;;;;;;;;;;;;;;;
2022/04/10 00:55:07;;;;;;;1.90;1.10;;;;;;;1.35;36.37;92342.72;6173555;23;20017;-90
2022/04/10 00:58:06;;;;;;;;;;;;;;;;;;;;;
2022/04/10 01:01:16;;;;;;;1.42;0.93;;;;;;;1.47;36.17;92349.63;6217176;23;20091;-91
2022/04/10 01:04:19;;;;;;;;;;;;;;;;;;;;;
2022/04/10 01:07:24;;;;;;;;;;;;;;;;;;;;;
2022/04/10 01:10:34;;;;;;;;;;;;;;;;;;;;;
2022/04/10 01:13:43;;;;;;;;;;;;;;;;;;;;;
2022/04/10 01:17:06;;;;;;;1.63;1.00;;;;;;;1.88;36.55;92412.97;6216905;23;20091;-91
2022/04/10 01:20:43;;;;;;;2.30;1.00;;;;;;;1.44;37.25;92372.28;6216868;23;20092;-91
2022/04/10 01:23:52;;;;;;;;;;;;;;;;;;;;;
2022/04/10 01:27:21;;;;;;;1.65;1.08;;;;;;;1.09;38.49;92354.38;6198069;23;20020;-90
2022/04/10 01:30:20;;;;;;;2.15;0.98;;;;;;;1.02;38.11;92369.22;6167670;23;20008;-91
2022/04/10 01:33:05;;;;;;;;;;;;;;;;;;;;;
2022/04/10 01:36:31;;;;;;;;;;;;;;;;;;;;;
2022/04/10 01:39:28;;;;;;;;;;;;;;;;;;;;;
2022/04/10 01:42:19;;;;;;;;;;;;;;;1.09;38.13;92418.84;6190304;23;20135;-94
2022/04/10 01:44:59;;;;;;;6.90;1.00;;;;;;;0.63;37.87;92361.25;6145614;23;19912;-91
2022/04/10 01:47:50;;;;;;;;;;;;;;;;;;;;;
2022/04/10 01:51:15;;;;;;;0.93;0.75;;;;;;;0.74;37.61;92357.09;6197716;23;20040;-89
2022/04/10 01:53:46;;;;;;;0.88;0.80;;;;;;;0.83;37.39;92358.28;6143785;23;20043;-91
2022/04/10 01:59:33;;;;;;;;;;;;;;;;;;;;;
2022/04/10 02:06:06;;;;;;;;;;;;;;;;;;;;;
2022/04/10 02:08:51;;;;;;;0.98;0.80;;;;;;;0.79;39.37;92362.34;6190236;23;20024;-91
2022/04/10 02:12:27;;;;;;;;;;;;;;;;;;;;;
2022/04/10 02:15:31;;;;;;;2.10;1.02;;;;;;;1.07;39.60;92433.75;6190207;23;20496;-91
2022/04/10 02:18:38;;;;;;;1.33;0.88;;;;;;;0.47;39.53;92370.47;6168102;23;20015;-90
2022/04/10 02:21:32;;;;;;;;;;;;;;;;;;;;;
2022/04/10 02:24:31;;;;;;;1.65;0.80;;;;;;;0.77;40.47;92423.63;6216669;23;20096;-91
2022/04/10 02:30:38;;;;;;;1.30;0.90;;;;;;;0.28;39.23;92366.50;6154224;23;20024;-91
2022/04/10 02:33:32;;;;;;;1.63;0.95;;;;;;;0.77;39.36;92439.09;6192226;23;20091;-90
2022/04/10 02:36:24;;;;;;;1.55;0.75;;;;;;;0.30;39.60;92382.50;6167130;23;20021;-90
2022/04/10 02:39:32;;;;;;;2.03;0.90;;;;;;;0.65;39.89;92446.81;6196451;23;20108;-91
2022/04/10 02:42:43;;;;;;;1.00;0.80;;;;;;;0.33;39.67;92405.22;6165248;23;20031;-91
2022/04/10 02:49:05;;;;;;;;;;;;;;;;;;;;;
2022/04/10 02:52:36;;;;;;;;;;;;;;;;;;;;;
2022/04/10 02:55:14;;;;;;;2.85;0.90;;;;;;;0.03;39.68;92387.31;6170761;23;20016;-90
2022/04/10 02:58:03;;;;;;;1.23;0.85;;;;;;;0.14;39.74;92405.34;6189895;23;20099;-90
2022/04/10 03:01:06;;;;;;;;;;;;;;;;;;;;;
2022/04/10 03:03:59;;;;;;;3.03;1.10;;;;;;;0.14;40.61;92420.78;6168037;23;20071;-90
2022/04/10 03:06:37;;;;;;;;;;;;;;;;;;;;;
2022/04/10 03:09:48;;;;;;;1.70;0.88;;;;;;;-0.06;40.03;92392.00;6172683;23;20466;-91
2022/04/10 03:12:44;;;;;;;1.00;0.80;;;;;;;0.12;40.30;92424.59;6170193;23;20095;-90
2022/04/10 03:15:46;;;;;;;;;;;;;;;;;;;;;
2022/04/10 03:18:59;;;;;;;1.08;0.80;;;;;;;0.18;40.52;92415.94;6216520;23;20099;-89
2022/04/10 03:22:11;;;;;;;1.95;0.88;;;;;;;0.35;41.28;92446.97;6193195;23;20091;-90
2022/04/10 03:25:14;;;;;;;0.80;0.80;;;;;;;0.05;40.31;92393.81;6212328;23;20075;-91
2022/04/10 03:28:36;;;;;;;1.55;0.73;;;;;;;0.10;40.77;92406.78;6244647;23;20103;-90
2022/04/10 03:31:40;;;;;;;2.75;1.20;;;;;;;0.27;40.46;92424.94;6245895;23;20385;-90
2022/04/10 03:34:37;;;;;;;1.92;1.02;;;;;;;0.24;41.05;92419.44;6245114;23;20087;-90
2022/04/10 03:37:08;;;;;;;1.60;0.95;;;;;;;-0.04;40.35;92380.50;6219956;23;20095;-90
2022/04/10 03:40:31;;;;;;;1.58;0.98;;;;;;;0.35;40.63;92436.66;6244216;23;20024;-91
2022/04/10 03:43:38;;;;;;;0.77;0.77;;;;;;;0.00;40.86;92383.41;6242796;23;20096;-91
2022/04/10 03:46:43;;;;;;;;;;;;;;;;;;;;;
2022/04/10 03:49:52;;;;;;;;;;;;;;;;;;;;;
2022/04/10 03:52:46;;;;;;;2.80;1.08;;;;;;;-0.10;41.26;92394.25;6225472;23;20031;-92
2022/04/10 03:55:55;;;;;;;3.15;1.73;;;;;;;-0.06;41.08;92394.59;6223110;23;20083;-90
2022/04/10 03:59:09;;;;;;;;;;;;;;;;;;;;;
2022/04/10 04:06:05;;;;;;;1.13;0.80;;;;;;;-0.03;40.43;92391.56;6243863;22;20043;-90
2022/04/10 04:09:24;;;;;;;2.45;0.80;;;;;;;0.10;40.27;92406.78;6228885;23;20087;-90
2022/04/10 04:12:23;;;;;;;1.45;0.88;;;;;;;0.35;40.17;92440.03;6225675;23;20095;-91
2022/04/10 04:15:24;;;;;;;1.83;0.90;;;;;;;0.16;40.10;92403.31;6197951;23;20024;-89
2022/04/10 04:18:44;;;;;;;1.30;0.80;;;;;;;0.38;40.18;92447.31;6224122;23;20467;-90
2022/04/10 04:21:55;;;;;;;0.65;0.65;;;;;;;0.32;40.16;92427.59;6236695;23;20059;-90
2022/04/10 04:25:05;;;;;;;;;;;;;;;;;;;;;
2022/04/10 04:28:38;;;;;;;;;;;;;;;;;;;;;
2022/04/10 04:32:07;;;;;;;0.60;0.60;;;;;;;0.57;40.76;92473.72;6230963;23;20074;-90
2022/04/10 04:35:13;;;;;;;0.90;0.80;;;;;;;0.21;40.87;92433.53;6221612;23;20024;-91
2022/04/10 04:38:02;;;;;;;;;;;;;;;;;;;;;
2022/04/10 04:41:10;;;;;;;0.85;0.77;;;;;;;0.40;40.88;92463.31;6247131;23;20084;-90
2022/04/10 04:44:10;;;;;;;1.75;0.77;;;;;;;0.18;41.43;92434.78;6240961;22;20012;-90
2022/04/10 04:46:56;;;;;;;1.38;0.90;;;;;;;0.18;41.20;92437.34;6178226;23;20024;-90
2022/04/10 04:50:05;;;;;;;;;;;;;;;;;;;;;
2022/04/10 04:53:08;;;;;;;;;;;;;;;;;;;;;
2022/04/10 04:55:47;;;;;;;3.20;0.93;;;;;;;0.27;41.06;92429.28;6223410;23;20020;-87
2022/04/10 04:58:16;;;;;;;0.95;0.77;;;;;;;0.52;41.38;92462.50;6218413;23;20215;-88
2022/04/10 05:01:20;;;;;;;;;;;;;;;;;;;;;
2022/04/10 05:03:51;;;;;;;0.95;0.70;;;;;;;0.45;41.08;92447.22;6244495;23;20733;-87
2022/04/10 05:06:28;;;;;;;;;;;;;;;;;;;;;
2022/04/10 05:09:11;;;;;;;1.02;0.70;;;;;;;0.64;41.38;92465.88;6244015;23;20012;-87
2022/04/10 05:11:44;;;;;;;1.08;0.88;;;;;;;0.50;41.24;92449.09;6243573;23;20531;-88
2022/04/10 05:14:21;;;;;;;4.65;0.80;;;;;;;0.54;41.05;92455.34;6243612;23;20016;-87
2022/04/10 05:17:03;;;;;;;0.85;0.80;;;;;;;0.74;40.79;92481.53;6219717;23;20019;-88
2022/04/10 05:19:35;;;;;;;1.30;0.80;;;;;;;0.68;41.09;92476.53;6243794;23;20301;-86
2022/04/10 05:22:06;;;;;;;1.45;0.90;;;;;;;0.75;40.54;92469.47;6244138;23;20008;-87
2022/04/10 05:24:47;;;;;;;1.17;0.80;;;;;;;0.77;40.41;92455.34;6226824;22;20096;-87
2022/04/10 05:27:34;;;;;;;2.25;0.90;;;;;;;1.31;40.42;92524.72;6162244;23;20013;-86
2022/04/10 05:30:08;;;;;;;2.05;0.98;;;;;;;0.98;39.85;92451.38;6145521;23;20043;-87
2022/04/10 05:32:53;;;;;;;1.05;0.75;;;;;;;1.18;40.08;92468.25;6187274;23;20040;-87
2022/04/10 05:35:28;;;;;;;1.10;0.70;;;;;;;1.29;40.42;92451.97;6163753;23;20067;-86
2022/04/10 05:37:56;;;;;;;1.15;0.70;;;;;;;1.66;40.48;92495.44;6163470;23;20013;-87
2022/04/10 05:40:33;;;;;;;0.57;0.57;;;;;;;1.83;40.44;92504.00;6188337;23;20088;-87
2022/04/10 05:43:12;;;;;;;0.60;0.60;;;;;;;1.78;40.25;92459.25;6163338;23;20012;-87
2022/04/10 05:45:42;;;;;;;1.17;0.77;;;;;;;2.15;39.46;92484.66;6165692;23;20021;-87
2022/04/10 05:48:29;;;;;;;0.70;0.70;;;;;;;2.49;39.04;92503.50;6189903;23;20047;-87
2022/04/10 05:51:22;;;;;;;0.73;0.73;;;;;;;2.73;38.70;92513.69;6163346;23;20017;-86
2022/04/10 05:53:55;;;;;;;;;;;;;;;3.07;37.99;92530.72;6166912;23;20012;-87
2022/04/10 05:56:39;;;;;;;;;;;;;;;;;;;;;
2022/04/10 05:59:42;;;;;;;0.68;0.60;;;;;;;3.07;36.49;92460.88;6194466;23;20092;-91
2022/04/10 06:02:20;;;;;;;;;;;;;;;;;;;;;
2022/04/10 06:05:12;;;;;;;;;;;;;;;;;;;;;
2022/04/10 06:08:05;;;;;;;1.05;0.68;;;;;;;4.11;34.19;92486.81;6214587;23;20103;-88
2022/04/10 06:10:56;;;;;;;1.10;0.77;;;;;;;4.37;33.90;92486.00;6193030;23;20012;-87
2022/04/10 06:13:50;;;;;;;0.85;0.63;;;;;;;4.97;32.60;92506.59;6167123;23;20340;-90
2022/04/10 06:16:49;;;;;;;2.00;1.05;;;;;;;9.32;28.48;92508.34;6214764;23;20099;-89
2022/04/10 06:19:54;;;;;;;1.42;1.10;;;;;;;14.04;21.71;92494.13;6164158;23;20091;-87
2022/04/10 06:22:36;;;;;;;2.72;1.10;;;;;;;16.96;17.86;92476.44;6164600;23;20059;-88
2022/04/10 06:25:14;;;;;;;2.25;1.17;;;;;;;18.70;17.48;92516.69;6229033;23;20530;-89
2022/04/10 06:27:42;;;;;;;1.17;0.90;;;;;;;20.08;15.73;92515.38;6193610;23;20051;-88
2022/04/10 06:30:15;;;;;;;1.20;0.85;;;;;;;21.40;14.39;92476.69;6217955;23;20054;-87
2022/04/10 06:32:48;;;;;;;2.22;1.08;;;;;;;21.99;12.92;92475.41;6218825;23;20336;-86
2022/04/10 06:35:24;;;;;;;;;;;;;;;;;;;;;
2022/04/10 06:37:57;;;;;;;2.05;0.98;;;;;;;23.23;11.11;92496.16;6242352;23;20387;-87
2022/04/10 06:40:30;;;;;;;1.08;0.90;;;;;;;24.07;11.12;92504.66;6243321;23;20066;-86
2022/04/10 06:43:01;;;;;;;2.08;0.90;;;;;;;22.58;12.00;92507.91;6243228;22;20094;-89
2022/04/10 06:45:46;;;;;;;2.17;1.02;;;;;;;22.98;13.34;92533.22;6243438;23;20514;-87
2022/04/10 06:48:31;;;;;;;4.68;1.00;;;;;;;22.66;12.51;92498.88;6196678;23;20012;-88
2022/04/10 06:51:09;;;;;;;1.25;0.90;;;;;;;23.51;12.42;92494.94;6219285;23;20054;-87
2022/04/10 06:53:40;;;;;;;2.20;1.20;;;;;;;21.97;13.58;92527.53;6243868;23;20094;-88
2022/04/10 06:56:08;;;;;;;2.10;1.20;;;;;;;23.59;12.46;92491.19;6243420;23;20351;-88
2022/04/10 06:58:46;;;;;;;2.08;1.10;;;;;;;22.46;12.43;92500.13;6243196;23;20008;-87
2022/04/10 07:01:22;;;;;;;;;;;;;;;22.27;13.82;92545.53;6220193;23;20016;-87
2022/04/10 07:03:58;;;;;;;1.52;1.00;;;;;;;22.00;13.63;92521.50;6243502;23;20322;-87
2022/04/10 07:06:39;;;;;;;2.42;0.93;;;;;;;19.66;15.71;92507.16;6242224;23;20016;-89
2022/04/10 07:09:07;;;;;;;1.73;0.90;;;;;;;17.57;17.06;92497.75;6218918;23;20348;-87
2022/04/10 07:11:41;;;;;;;1.23;0.93;;;;;;;13.75;21.55;92521.75;6219331;23;20020;-88
2022/04/10 07:14:17;;;;;;;0.95;0.80;;;;;;;11.23;23.40;92515.16;6243117;23;20019;-88
2022/04/10 07:16:55;;;;;;;0.95;0.80;;;;;;;9.49;27.54;92505.28;6242946;23;20012;-89
2022/04/10 07:19:21;;;;;;;2.10;1.00;;;;;;;9.76;28.55;92504.69;6217615;23;20515;-87
2022/04/10 07:25:00;;;;;;;4.00;1.50;;;;;;;8.96;33.27;92520.94;6259787;23;20100;-87
2022/04/10 07:27:30;;;;;;;5.68;1.30;;;;;;;8.22;32.35;92522.75;6261272;23;20032;-88
2022/04/10 07:30:19;;;;;;;2.28;1.30;;;;;;;8.07;32.97;92537.44;6262791;23;20019;-87
2022/04/10 07:33:05;;;;;;;3.25;1.42;;;;;;;8.53;32.53;92545.03;6265762;22;20020;-89
2022/04/10 07:35:41;;;;;;;2.22;1.30;;;;;;;9.11;31.63;92570.41;6262994;23;20039;-89
2022/04/10 07:38:18;;;;;;;1.85;1.10;;;;;;;9.76;30.37;92543.91;6223615;23;20050;-87
2022/04/10 07:41:14;;;;;;;2.13;1.23;;;;;;;10.28;29.67;92595.63;6220914;23;20392;-87
2022/04/10 07:43:45;;;;;;;1.17;0.90;;;;;;;9.56;27.32;92531.84;6246138;23;20024;-87
2022/04/10 07:49:08;;;;;;;2.95;1.30;;;;;;;9.96;31.69;92589.97;6246456;23;20071;-87
2022/04/10 07:51:48;;;;;;;;;;;;;;;10.33;33.93;92606.03;6225178;23;20340;-88
2022/04/10 07:54:23;;;;;;;2.78;1.45;;;;;;;9.71;34.17;92570.13;6245394;23;20338;-87
2022/04/10 07:56:51;;;;;;;2.65;1.48;;;;;;;9.12;36.43;92566.78;6245198;23;20038;-87
2022/04/10 07:59:23;;;;;;;7.10;1.50;;;;;;;9.28;35.28;92613.66;6246211;22;20008;-87
2022/04/10 08:01:49;;;;;;;3.50;1.60;;;;;;;9.32;33.81;92573.66;6244820;23;20012;-87
2022/04/10 08:04:25;;;;;;;2.00;1.20;;;;;;;9.33;32.03;92562.13;6245101;23;20070;-88
2022/04/10 08:07:17;;;;;;;2.55;1.20;;;;;;;9.66;30.87;92548.47;6217745;22;20016;-87
2022/04/10 08:09:50;;;;;;;2.45;1.02;;;;;;;10.40;30.44;92601.22;6220172;23;20062;-88
2022/04/10 08:12:23;;;;;;;2.22;1.05;;;;;;;8.92;32.22;92546.81;6246837;22;20455;-87
2022/04/10 08:15:07;;;;;;;;;;;;;;;;;;;;;
2022/04/10 08:18:00;;;;;;;;;;;;;;;;;;;;;
2022/04/10 08:20:39;;;;;;;1.20;0.90;;;;;;;8.75;29.48;92583.75;6245410;23;20070;-89
2022/04/10 08:23:17;;;;;;;1.75;1.13;;;;;;;9.53;31.29;92582.06;6220165;23;20371;-87
2022/04/10 08:25:47;;;;;;;2.92;1.30;;;;;;;10.11;30.32;92562.88;6192944;23;20022;-88
2022/04/10 08:28:18;;;;;;;1.45;0.90;;;;;;;9.66;29.83;92554.50;6243637;23;20040;-88
2022/04/10 08:30:47;;;;;;;1.60;0.98;;;;;;;9.01;28.29;92548.84;6244453;22;20439;-87
2022/04/10 08:33:27;;;;;;;1.63;0.80;;;;;;;9.25;27.80;92570.56;6244158;22;20080;-88
2022/04/10 08:35:58;;;;;;;1.95;0.90;;;;;;;9.04;27.04;92574.41;6245718;23;20044;-88
2022/04/10 08:38:26;;;;;;;0.88;0.80;;;;;;;8.63;26.62;92575.50;6244708;22;20015;-88
2022/04/10 08:41:02;;;;;;;3.28;1.08;;;;;;;9.36;27.51;92586.91;6243169;23;20086;-88
2022/04/10 08:43:28;;;;;;;1.23;0.98;;;;;;;9.06;27.63;92541.75;6217764;23;20043;-87
2022/04/10 08:46:02;;;;;;;1.63;0.90;;;;;;;9.04;27.19;92590.09;6242535;23;20000;-88
2022/04/10 08:48:28;;;;;;;1.42;1.00;;;;;;;8.64;28.34;92586.69;6245057;22;20096;-88
2022/04/10 08:51:06;;;;;;;1.50;0.80;;;;;;;8.73;25.71;92559.75;6242937;23;20443;-87
2022/04/10 08:53:34;;;;;;;2.22;0.95;;;;;;;8.82;26.23;92578.22;6242559;23;20019;-87
2022/04/10 08:56:02;;;;;;;1.85;0.82;;;;;;;9.10;25.91;92591.59;6242758;23;20047;-89
2022/04/10 08:58:31;;;;;;;0.80;0.73;;;;;;;9.28;25.91;92577.88;6243512;23;20016;-89
2022/04/10 09:01:07;;;;;;;1.17;0.70;;;;;;;8.90;24.31;92603.75;6242788;23;20019;-88
2022/04/10 09:03:36;;;;;;;1.02;0.80;;;;;;;8.99;25.67;92574.47;6243284;23;20445;-88
2022/04/10 09:06:06;;;;;;;0.82;0.70;;;;;;;8.44;24.16;92583.16;6244276;22;20031;-87
2022/04/10 09:08:38;;;;;;;3.17;1.20;;;;;;;8.81;25.49;92610.59;6242699;23;20043;-88
2022/04/10 09:11:14;;;;;;;1.67;0.90;;;;;;;9.64;25.86;92608.09;6244217;22;20015;-88
2022/04/10 09:13:48;;;;;;;2.40;0.80;;;;;;;9.59;25.01;92590.63;6242356;23;20012;-88
2022/04/10 09:16:26;;;;;;;4.03;0.95;;;;;;;9.68;24.39;92582.94;6242526;23;20035;-87
2022/04/10 09:18:54;;;;;;;1.17;0.80;;;;;;;9.80;23.43;92638.25;6242942;23;20028;-88
2022/04/10 09:21:25;;;;;;;1.27;0.80;;;;;;;10.03;22.75;92610.56;6217511;23;20012;-88
2022/04/10 09:23:58;;;;;;;0.82;0.68;;;;;;;10.39;22.65;92642.34;6242640;23;20083;-88
2022/04/10 09:26:25;;;;;;;1.83;1.00;;;;;;;9.87;23.68;92612.56;6242872;23;20008;-88
2022/04/10 09:28:52;;;;;;;0.75;0.75;;;;;;;10.73;23.17;92632.75;6241384;23;20044;-90
2022/04/10 09:31:33;;;;;;;1.35;0.80;;;;;;;10.91;23.59;92644.28;6242307;23;20008;-87
2022/04/10 09:34:10;;;;;;;1.50;1.00;;;;;;;11.42;27.13;92648.78;6241977;23;20023;-89
2022/04/10 09:36:38;;;;;;;1.70;1.00;;;;;;;11.97;25.71;92650.75;6244024;22;20030;-88
2022/04/10 09:39:11;;;;;;;1.02;0.75;;;;;;;12.39;23.96;92633.19;6240531;23;20004;-89
2022/04/10 09:41:39;;;;;;;3.78;0.80;;;;;;;12.75;26.00;92629.81;6216385;23;20348;-91
2022/04/10 09:44:49;;;;;;;1.88;1.05;;;;;;;12.96;22.97;92641.44;6240256;23;20012;-92
2022/04/10 09:47:37;;;;;;;0.98;0.45;;;;;;;12.11;22.98;92633.16;6195185;23;20381;-91
2022/04/10 09:50:08;;;;;;;1.80;1.00;;;;;;;11.90;25.91;92569.03;6216927;23;20503;-91
2022/04/10 09:52:39;;;;;;;1.90;0.70;;;;;;;11.17;22.27;92563.47;6217677;23;20064;-90
2022/04/10 09:55:28;;;;;;;2.08;0.73;;;;;;;9.92;22.56;92590.81;6216009;23;20495;-92
2022/04/10 09:58:10;;;;;;;0.93;0.73;;;;;;;10.80;23.26;92557.22;6240719;23;20436;-92
2022/04/10 10:01:22;;;;;;;1.13;0.90;;;;;;;11.01;22.02;92558.50;6219487;23;20230;-90
2022/04/10 10:03:51;;;;;;;0.75;0.70;;;;;;;10.76;23.19;92611.22;6216647;23;20020;-91
2022/04/10 10:06:19;;;;;;;0.47;0.47;;;;;;;9.88;22.43;92540.91;6219204;23;20022;-90
2022/04/10 10:08:53;;;;;;;1.85;0.88;;;;;;;9.85;23.57;92540.69;6216831;23;20008;-93
2022/04/10 10:11:22;;;;;;;1.88;1.10;;;;;;;10.03;22.21;92589.63;6241880;23;20084;-90
2022/04/10 10:13:49;;;;;;;1.30;0.73;;;;;;;9.66;22.92;92549.28;6216385;23;20020;-93
2022/04/10 10:16:18;;;;;;;2.22;0.90;;;;;;;10.19;23.08;92551.75;6241578;23;20004;-91
2022/04/10 10:19:34;;;;;;;1.23;0.75;;;;;;;9.84;22.95;92591.41;6243640;23;20074;-91
2022/04/10 10:22:55;;;;;;;;;;;;;;;;;;;;;
2022/04/10 10:25:45;;;;;;;0.77;0.70;;;;;;;10.55;21.31;92569.63;6214665;22;20079;-90
2022/04/10 10:29:04;;;;;;;0.50;0.50;;;;;;;9.86;22.96;92542.22;6190457;23;20017;-91
2022/04/10 10:32:12;;;;;;;;;;;;;;;;;;;;;
2022/04/10 10:34:51;;;;;;;1.40;0.88;;;;;;;10.32;22.93;92505.06;6212148;23;20535;-91
2022/04/10 10:37:37;;;;;;;1.33;0.80;;;;;;;11.21;23.28;92525.13;6186208;23;20044;-91
2022/04/10 10:40:16;;;;;;;0.98;0.70;;;;;;;10.65;21.95;92549.59;6161909;23;20020;-91
2022/04/10 10:43:04;;;;;;;0.77;0.60;;;;;;;10.80;20.48;92559.84;6161857;23;20059;-91
2022/04/10 10:45:43;;;;;;;0.93;0.70;;;;;;;10.45;21.30;92559.31;6160857;23;20008;-89
2022/04/10 10:48:42;;;;;;;1.95;0.80;;;;;;;10.38;20.65;92590.25;6185542;23;20016;-90
2022/04/10 10:51:11;;;;;;;1.00;0.75;;;;;;;11.21;22.46;92583.59;6159887;23;20004;-91
2022/04/10 10:53:55;;;;;;;2.10;1.02;;;;;;;11.22;21.84;92534.56;6160324;23;20009;-91
2022/04/10 10:56:50;;;;;;;0.45;0.45;;;;;;;11.38;20.62;92543.72;6161129;23;20016;-91
2022/04/10 10:59:41;;;;;;;0.80;0.70;;;;;;;11.07;21.85;92563.63;6161536;23;20020;-91
2022/04/10 11:02:39;;;;;;;2.58;0.90;;;;;;;11.28;21.73;92514.28;6186019;23;20088;-92
2022/04/10 11:05:54;;;;;;;;;;;;;;;;;;;;;
2022/04/10 11:08:38;;;;;;;2.13;0.90;;;;;;;11.66;21.58;92520.13;6189583;23;20009;-89
2022/04/10 11:11:50;;;;;;;0.80;0.70;;;;;;;11.98;20.81;92560.47;6213460;23;20059;-91
2022/04/10 11:14:51;;;;;;;2.22;0.80;;;;;;;11.46;21.41;92524.72;6206880;23;20099;-90
2022/04/10 11:17:39;;;;;;;1.00;0.70;;;;;;;10.57;21.62;92491.59;6210003;23;20024;-89
2022/04/10 11:20:28;;;;;;;1.40;0.70;;;;;;;10.60;21.14;92493.66;6163819;23;20020;-90
2022/04/10 11:23:25;;;;;;;;;;;;;;;;;;;;;
2022/04/10 11:26:05;;;;;;;;;;;;;;;;;;;;;
2022/04/10 11:29:32;;;;;;;2.33;0.90;;;;;;;12.00;20.67;92522.41;6214529;23;20179;-91
2022/04/10 11:32:26;;;;;;;1.38;0.85;;;;;;;11.51;20.30;92478.50;6155831;23;20100;-90
2022/04/10 11:35:43;;;;;;;0.88;0.70;;;;;;;11.95;20.85;92498.09;6213815;23;20021;-90
2022/04/10 11:38:19;;;;;;;1.40;0.77;;;;;;;11.56;20.13;92531.59;6127785;23;20017;-90
2022/04/10 11:41:10;;;;;;;;;;;;;;;;;;;;;
2022/04/10 11:44:20;;;;;;;2.00;0.90;;;;;;;11.10;20.61;92489.69;6166389;23;20075;-90
2022/04/10 11:47:10;;;;;;;;;;;;;;;;;;;;;
2022/04/10 11:50:13;;;;;;;1.58;0.90;;;;;;;12.07;20.67;92449.31;6195184;23;20092;-88
2022/04/10 11:52:56;;;;;;;1.40;0.80;;;;;;;11.62;21.75;92524.44;6188219;23;20474;-87
2022/04/10 11:55:44;;;;;;;1.10;0.80;;;;;;;10.90;21.78;92449.72;6190388;23;20095;-87
2022/04/10 11:59:24;;;;;;;3.00;0.90;;;;;;;11.21;21.57;92494.50;6189804;23;20108;-89
2022/04/10 12:02:07;;;;;;;1.33;0.80;;;;;;;11.98;21.87;92523.75;6041968;23;20038;-88
2022/04/10 12:04:49;;;;;;;;;;;;;;;;;;;;;
2022/04/10 12:07:25;;;;;;;1.08;0.80;;;;;;;12.22;20.49;92508.56;6187919;23;20020;-88
2022/04/10 12:09:53;;;;;;;1.58;0.90;;;;;;;11.59;20.05;92454.22;6188577;23;20029;-90
2022/04/10 12:13:02;;;;;;;0.55;0.52;;;;;;;11.28;20.47;92475.78;6190208;23;20013;-89
2022/04/10 12:15:32;;;;;;;1.10;0.80;;;;;;;11.67;21.24;92445.66;6143741;23;20494;-88
2022/04/10 12:18:26;;;;;;;;;;;;;;;;;;;;;
2022/04/10 12:21:22;;;;;;;1.33;0.93;;;;;;;11.36;21.55;92433.16;6189325;23;20127;-90
2022/04/10 12:24:14;;;;;;;;;;;;;;;;;;;;;
2022/04/10 12:27:22;;;;;;;1.95;0.93;;;;;;;11.60;21.89;92474.91;6245037;23;20451;-90
2022/04/10 12:30:33;;;;;;;4.70;1.83;;;;;;;11.76;20.57;92488.50;6245763;23;20054;-90
2022/04/10 12:33:20;;;;;;;13.07;5.60;;;;;;;11.28;20.67;92443.53;6246834;23;20087;-91
2022/04/10 12:39:46;;;;;;;4.10;2.13;;;;;;;12.07;21.13;92495.78;6198115;23;20111;-90
2022/04/10 12:42:40;;;;;;;1.83;1.10;;;;;;;11.70;22.09;92466.03;6246412;22;20162;-92
2022/04/10 12:45:38;;;;;;;4.88;2.25;;;;;;;11.94;21.10;92446.72;6245444;23;20016;-90
2022/04/10 12:51:53;;;;;;;5.82;2.28;;;;;;;11.54;20.87;92470.81;6229690;23;20507;-89
2022/04/10 12:54:50;;;;;;;1.10;0.80;;;;;;;11.57;21.19;92409.16;6215633;23;20686;-90
2022/04/10 12:57:49;;;;;;;2.30;1.20;;;;;;;12.81;21.16;92481.50;6245124;23;20070;-90
2022/04/10 13:00:26;;;;;;;2.00;1.15;;;;;;;12.21;21.62;92415.16;6244880;23;20008;-90
2022/04/10 13:03:47;;;;;;;1.50;1.10;;;;;;;12.17;20.99;92427.31;6244847;23;20016;-90
2022/04/10 13:06:35;;;;;;;;;;;;;;;;;;;;;
2022/04/10 13:09:37;;;;;;;;;;;;;;;;;;;;;
2022/04/10 13:12:54;;;;;;;;;;;;;;;;;;;;;
2022/04/10 13:16:17;;;;;;;2.45;1.00;;;;;;;12.23;21.64;92452.38;6245176;23;20095;-90
2022/04/10 13:19:36;;;;;;;;;;;;;;;;;;;;;
2022/04/10 13:22:18;;;;;;;4.82;1.00;;;;;;;12.40;21.95;92398.47;6167525;23;20024;-90
2022/04/10 13:28:45;;;;;;;;;;;;;;;;;;;;;
2022/04/10 13:31:39;;;;;;;;;;;;;;;;;;;;;
2022/04/10 13:34:28;;;;;;;1.73;1.00;;;;;;;12.22;21.16;92385.22;6244554;22;20016;-91
2022/04/10 13:37:24;;;;;;;1.13;0.63;;;;;;;11.64;20.51;92427.88;6244898;22;20024;-90
2022/04/10 13:40:35;;;;;;;1.77;1.00;;;;;;;12.08;21.71;92387.88;6245679;23;20095;-90
2022/04/10 13:43:38;;;;;;;;;;;;;;;;;;;;;
2022/04/10 13:47:02;;;;;;;0.82;0.77;;;;;;;12.53;21.33;92408.13;6224210;23;20046;-91
2022/04/10 13:49:36;;;;;;;1.02;0.80;;;;;;;12.66;20.57;92444.03;6245025;23;20019;-91
2022/04/10 13:52:29;;;;;;;1.25;0.73;;;;;;;12.87;20.76;92448.81;6221406;23;20012;-90
2022/04/10 13:55:48;;;;;;;2.20;0.93;;;;;;;12.53;21.41;92425.72;6200500;23;20020;-92
2022/04/10 13:58:42;;;;;;;;;;;;;;;;;;;;;
2022/04/10 14:01:49;;;;;;;1.17;0.77;;;;;;;12.82;22.00;92451.56;6246944;22;20020;-90
2022/04/10 14:04:56;;;;;;;3.53;1.08;;;;;;;12.86;21.88;92457.78;6202361;23;20028;-91
2022/04/10 14:07:58;;;;;;;1.33;0.90;;;;;;;12.78;21.16;92408.56;6208335;23;20030;-90
2022/04/10 14:11:37;;;;;;;2.35;1.10;;;;;;;14.35;20.88;92446.63;6232638;23;20054;-91
2022/04/10 14:14:09;;;;;;;1.73;1.00;;;;;;;13.47;20.61;92393.13;6245072;23;20078;-90
2022/04/10 14:17:16;;;;;;;2.00;1.13;;;;;;;12.73;21.17;92375.34;6244706;23;20091;-91
2022/04/10 14:20:04;;;;;;;;;;;;;;;;;;;;;
2022/04/10 14:25:48;;;;;;;1.98;1.00;;;;;;;12.75;21.64;92382.94;6213910;23;20245;-92
2022/04/10 14:28:53;;;;;;;;;;;;;;;;;;;;;
2022/04/10 14:31:49;;;;;;;5.10;1.02;;;;;;;13.37;20.61;92390.75;6242827;23;20082;-91
2022/04/10 14:34:41;;;;;;;1.52;1.00;;;;;;;13.13;20.24;92389.28;6225646;23;20108;-92
2022/04/10 14:37:40;;;;;;;1.63;0.98;;;;;;;13.11;21.56;92406.41;6239691;23;20845;-90
2022/04/10 14:40:15;;;;;;;2.53;1.20;;;;;;;12.54;21.61;92399.19;6220518;23;20462;-90
2022/04/10 14:46:35;;;;;;;2.03;0.88;;;;;;;13.99;19.91;92368.75;6233910;23;20107;-93
2022/04/10 14:49:34;;;;;;;;;;;;;;;;;;;;;
2022/04/10 14:52:59;;;;;;;3.00;0.98;;;;;;;12.74;19.10;92361.13;6244768;23;20394;-91
2022/04/10 14:55:39;;;;;;;1.65;1.00;;;;;;;13.10;20.76;92415.38;6240565;22;20070;-89
2022/04/10 15:18:33;;;;;;;;;;;;;;;;;;;;;
2022/04/10 15:25:51;;;;;;;;;;;;;;;;;;;;;
2022/04/10 15:32:07;;;;;;;;;;;;;;;;;;;;;
2022/04/10 15:35:39;;;;;;;;;;;;;;;;;;;;;
2022/04/10 15:46:18;;;;;;;19.70;7.75;;;;;;;12.80;21.56;92443.97;6079839;23;20025;-91
2022/04/10 15:48:57;;;;;;;5.05;2.30;;;;;;;12.54;22.71;92383.44;6088813;23;20043;-92
2022/04/10 15:55:15;;;;;;;;;;;;;;;;;;;;;
2022/04/10 15:58:17;;;;;;;2.90;1.58;;;;;;;12.63;22.22;92404.47;6247091;22;20091;-91
2022/04/10 16:01:16;;;;;;;;;;;;;;;;;;;;;
2022/04/10 16:07:50;;;;;;;;;;;;;;;;;;;;;
2022/04/10 16:10:36;;;;;;;7.13;2.75;;;;;;;12.20;22.38;92397.84;6245769;23;20027;-91
2022/04/10 16:13:35;;;;;;;;;;;;;;;;;;;;;
2022/04/10 16:16:48;;;;;;;;;;;;;;;;;;;;;
2022/04/10 16:19:22;;;;;;;4.18;1.67;;;;;;;12.42;22.89;92401.56;6220215;23;20020;-91
2022/04/10 16:22:25;;;;;;;4.38;1.70;;;;;;;12.86;22.72;92405.22;6237390;23;20020;-90
2022/04/10 16:25:19;;;;;;;5.97;1.77;;;;;;;12.70;21.87;92407.47;6197724;23;20016;-92
2022/04/10 16:31:38;;;;;;;8.13;2.08;;;;;;;13.21;21.82;92426.41;6246513;23;20103;-90
2022/04/10 16:34:25;;;;;;;3.47;1.80;;;;;;;13.33;22.35;92434.53;6223060;23;20328;-90
2022/04/10 16:37:12;;;;;;;4.03;1.80;;;;;;;13.14;22.76;92411.06;6246515;23;20087;-90
2022/04/10 16:39:52;;;;;;;4.20;2.00;;;;;;;12.95;21.83;92411.31;6245304;23;20091;-91
2022/04/10 16:42:35;;;;;;;4.30;1.92;;;;;;;13.24;22.59;92447.59;6244820;23;20024;-91
2022/04/10 16:45:19;;;;;;;;;;;;;;;;;;;;;
2022/04/10 16:48:02;;;;;;;;;;;;;;;;;;;;;
2022/04/10 16:50:54;;;;;;;4.57;2.47;;;;;;;12.89;22.87;92426.41;6230668;23;20016;-92
2022/04/10 16:54:47;;;;;;;4.03;1.83;;;;;;;12.49;22.78;92413.19;6220586;23;20012;-91
2022/04/10 16:57:06;;;;;;;;;;;;;;;12.44;23.68;92459.78;6248232;22;20091;-91